sensor_id;sensor_type;location;lat;lon;timestamp;temperature;humidity
52415;DHT22;38340;52.964;6.086;2023-02-28T00:00:10;3.50;99.90
52415;DHT22;38340;52.964;6.086;2023-02-28T00:02:37;3.50;99.90
52415;DHT22;38340;52.964;6.086;2023-02-28T00:05:04;3.60;99.90
52415;DHT22;38340;52.964;6.086;2023-02-28T00:07:31;3.50;99.90
52415;DHT22;38340;52.964;6.086;2023-02-28T00:09:57;3.50;99.90
52415;DHT22;38340;52.964;6.086;2023-02-28T00:12:23;3.50;99.90
52415;DHT22;38340;52.964;6.086;2023-02-28T00:14:49;3.50;99.90
52415;DHT22;38340;52.964;6.086;2023-02-28T00:17:15;3.50;99.90
52415;DHT22;38340;52.964;6.086;2023-02-28T00:19:43;3.40;99.90
52415;DHT22;38340;52.964;6.086;2023-02-28T00:22:09;3.40;99.90
52415;DHT22;38340;52.964;6.086;2023-02-28T00:24:35;3.40;99.90
52415;DHT22;38340;52.964;6.086;2023-02-28T00:27:01;3.40;99.90
52415;DHT22;38340;52.964;6.086;2023-02-28T00:29:26;3.30;99.90
52415;DHT22;38340;52.964;6.086;2023-02-28T00:31:52;3.30;99.90
52415;DHT22;38340;52.964;6.086;2023-02-28T00:34:18;3.30;99.90
52415;DHT22;38340;52.964;6.086;2023-02-28T00:36:43;3.30;99.90
52415;DHT22;38340;52.964;6.086;2023-02-28T00:39:11;3.30;99.90
52415;DHT22;38340;52.964;6.086;2023-02-28T00:41:37;3.30;99.90
52415;DHT22;38340;52.964;6.086;2023-02-28T00:44:03;3.30;99.90
52415;DHT22;38340;52.964;6.086;2023-02-28T00:46:28;3.30;99.90
52415;DHT22;38340;52.964;6.086;2023-02-28T00:48:54;3.30;99.90
52415;DHT22;38340;52.964;6.086;2023-02-28T00:51:20;3.30;99.90
52415;DHT22;38340;52.964;6.086;2023-02-28T00:53:45;3.30;99.90
52415;DHT22;38340;52.964;6.086;2023-02-28T00:56:11;3.30;99.90
52415;DHT22;38340;52.964;6.086;2023-02-28T00:58:37;3.30;99.90
52415;DHT22;38340;52.964;6.086;2023-02-28T01:01:03;3.30;99.90
52415;DHT22;38340;52.964;6.086;2023-02-28T01:03:28;3.30;99.90
52415;DHT22;38340;52.964;6.086;2023-02-28T01:05:54;3.20;99.90
52415;DHT22;38340;52.964;6.086;2023-02-28T01:08:20;3.30;99.90
52415;DHT22;38340;52.964;6.086;2023-02-28T01:10:46;3.20;99.90
52415;DHT22;38340;52.964;6.086;2023-02-28T01:13:12;3.20;99.90
52415;DHT22;38340;52.964;6.086;2023-02-28T01:15:41;3.10;99.90
52415;DHT22;38340;52.964;6.086;2023-02-28T01:18:08;3.10;99.90
52415;DHT22;38340;52.964;6.086;2023-02-28T01:20:37;3.00;99.90
52415;DHT22;38340;52.964;6.086;2023-02-28T01:23:02;3.00;99.90
52415;DHT22;38340;52.964;6.086;2023-02-28T01:25:28;3.00;99.90
52415;DHT22;38340;52.964;6.086;2023-02-28T01:27:54;3.00;99.90
52415;DHT22;38340;52.964;6.086;2023-02-28T01:30:19;3.00;99.90
52415;DHT22;38340;52.964;6.086;2023-02-28T01:32:45;3.00;99.90
52415;DHT22;38340;52.964;6.086;2023-02-28T01:35:11;3.00;99.90
52415;DHT22;38340;52.964;6.086;2023-02-28T01:37:37;3.00;99.90
52415;DHT22;38340;52.964;6.086;2023-02-28T01:40:03;3.10;99.90
52415;DHT22;38340;52.964;6.086;2023-02-28T01:42:29;3.00;99.90
52415;DHT22;38340;52.964;6.086;2023-02-28T01:47:42;3.10;99.90
52415;DHT22;38340;52.964;6.086;2023-02-28T01:50:20;3.10;99.90
52415;DHT22;38340;52.964;6.086;2023-02-28T01:52:48;3.10;99.90
52415;DHT22;38340;52.964;6.086;2023-02-28T01:55:16;3.10;99.90
52415;DHT22;38340;52.964;6.086;2023-02-28T01:57:49;3.10;99.90
52415;DHT22;38340;52.964;6.086;2023-02-28T02:00:19;3.10;99.90
52415;DHT22;38340;52.964;6.086;2023-02-28T02:02:51;3.00;99.90
52415;DHT22;38340;52.964;6.086;2023-02-28T02:05:24;3.00;99.90
52415;DHT22;38340;52.964;6.086;2023-02-28T02:08:11;3.00;99.90
52415;DHT22;38340;52.964;6.086;2023-02-28T02:10:47;2.90;99.90
52415;DHT22;38340;52.964;6.086;2023-02-28T02:16:57;3.00;99.90
52415;DHT22;38340;52.964;6.086;2023-02-28T02:19:52;3.00;99.90
52415;DHT22;38340;52.964;6.086;2023-02-28T02:23:07;2.90;99.90
52415;DHT22;38340;52.964;6.086;2023-02-28T02:25:39;3.00;99.90
52415;DHT22;38340;52.964;6.086;2023-02-28T02:31:27;3.00;99.90
52415;DHT22;38340;52.964;6.086;2023-02-28T02:40:13;3.00;99.90
52415;DHT22;38340;52.964;6.086;2023-02-28T02:42:16;3.10;99.90
52415;DHT22;38340;52.964;6.086;2023-02-28T02:44:50;3.10;99.90
52415;DHT22;38340;52.964;6.086;2023-02-28T02:47:21;3.10;99.90
52415;DHT22;38340;52.964;6.086;2023-02-28T02:49:52;3.10;99.90
52415;DHT22;38340;52.964;6.086;2023-02-28T02:52:23;3.20;99.90
52415;DHT22;38340;52.964;6.086;2023-02-28T02:54:52;3.20;99.90
52415;DHT22;38340;52.964;6.086;2023-02-28T02:57:24;3.20;99.90
52415;DHT22;38340;52.964;6.086;2023-02-28T02:59:53;3.20;99.90
52415;DHT22;38340;52.964;6.086;2023-02-28T03:02:21;3.20;99.90
52415;DHT22;38340;52.964;6.086;2023-02-28T03:04:59;3.20;99.90
52415;DHT22;38340;52.964;6.086;2023-02-28T03:07:27;3.30;99.90
52415;DHT22;38340;52.964;6.086;2023-02-28T03:09:54;3.30;99.90
52415;DHT22;38340;52.964;6.086;2023-02-28T03:12:20;3.30;99.90
52415;DHT22;38340;52.964;6.086;2023-02-28T03:15:04;3.30;99.90
52415;DHT22;38340;52.964;6.086;2023-02-28T03:23:13;3.40;99.90
52415;DHT22;38340;52.964;6.086;2023-02-28T03:26:02;3.40;99.90
52415;DHT22;38340;52.964;6.086;2023-02-28T03:28:53;3.40;99.90
52415;DHT22;38340;52.964;6.086;2023-02-28T03:31:38;3.40;99.90
52415;DHT22;38340;52.964;6.086;2023-02-28T03:34:12;3.40;99.90
52415;DHT22;38340;52.964;6.086;2023-02-28T03:36:44;3.40;99.90
52415;DHT22;38340;52.964;6.086;2023-02-28T03:39:31;3.50;99.90
52415;DHT22;38340;52.964;6.086;2023-02-28T03:42:01;3.50;99.90
52415;DHT22;38340;52.964;6.086;2023-02-28T03:44:36;3.50;99.90
52415;DHT22;38340;52.964;6.086;2023-02-28T03:47:12;3.50;99.90
52415;DHT22;38340;52.964;6.086;2023-02-28T03:49:45;3.50;99.90
52415;DHT22;38340;52.964;6.086;2023-02-28T03:52:13;3.50;99.90
52415;DHT22;38340;52.964;6.086;2023-02-28T03:54:49;3.60;99.90
52415;DHT22;38340;52.964;6.086;2023-02-28T04:00:27;3.60;99.90
52415;DHT22;38340;52.964;6.086;2023-02-28T04:02:55;3.60;99.90
52415;DHT22;38340;52.964;6.086;2023-02-28T04:05:22;3.50;99.90
52415;DHT22;38340;52.964;6.086;2023-02-28T04:07:48;3.50;99.90
52415;DHT22;38340;52.964;6.086;2023-02-28T04:10:15;3.50;99.90
52415;DHT22;38340;52.964;6.086;2023-02-28T04:12:41;3.50;99.90
52415;DHT22;38340;52.964;6.086;2023-02-28T04:15:07;3.50;99.90
52415;DHT22;38340;52.964;6.086;2023-02-28T04:17:33;3.40;99.90
52415;DHT22;38340;52.964;6.086;2023-02-28T04:19:58;3.50;99.90
52415;DHT22;38340;52.964;6.086;2023-02-28T04:22:24;3.40;99.90
52415;DHT22;38340;52.964;6.086;2023-02-28T04:24:52;3.40;99.90
52415;DHT22;38340;52.964;6.086;2023-02-28T04:27:20;3.30;99.90
52415;DHT22;38340;52.964;6.086;2023-02-28T04:29:45;3.30;99.90
52415;DHT22;38340;52.964;6.086;2023-02-28T04:32:11;3.30;99.90
52415;DHT22;38340;52.964;6.086;2023-02-28T04:34:37;3.30;99.90
52415;DHT22;38340;52.964;6.086;2023-02-28T04:37:04;3.30;99.90
52415;DHT22;38340;52.964;6.086;2023-02-28T04:39:35;3.20;99.90
52415;DHT22;38340;52.964;6.086;2023-02-28T04:42:01;3.20;99.90
52415;DHT22;38340;52.964;6.086;2023-02-28T04:44:26;3.20;99.90
52415;DHT22;38340;52.964;6.086;2023-02-28T04:46:52;3.20;99.90
52415;DHT22;38340;52.964;6.086;2023-02-28T04:49:18;3.20;99.90
52415;DHT22;38340;52.964;6.086;2023-02-28T04:51:43;3.20;99.90
52415;DHT22;38340;52.964;6.086;2023-02-28T04:54:09;3.20;99.90
52415;DHT22;38340;52.964;6.086;2023-02-28T04:56:35;3.10;99.90
52415;DHT22;38340;52.964;6.086;2023-02-28T04:59:01;3.10;99.90
52415;DHT22;38340;52.964;6.086;2023-02-28T05:01:28;3.10;99.90
52415;DHT22;38340;52.964;6.086;2023-02-28T05:03:56;3.10;99.90
52415;DHT22;38340;52.964;6.086;2023-02-28T05:06:24;3.10;99.90
52415;DHT22;38340;52.964;6.086;2023-02-28T05:08:51;3.10;99.90
52415;DHT22;38340;52.964;6.086;2023-02-28T05:11:18;3.10;99.90
52415;DHT22;38340;52.964;6.086;2023-02-28T05:13:45;3.10;99.90
52415;DHT22;38340;52.964;6.086;2023-02-28T05:16:11;3.00;99.90
52415;DHT22;38340;52.964;6.086;2023-02-28T05:18:37;2.90;99.90
52415;DHT22;38340;52.964;6.086;2023-02-28T05:21:03;2.90;99.90
52415;DHT22;38340;52.964;6.086;2023-02-28T05:23:29;2.80;99.90
52415;DHT22;38340;52.964;6.086;2023-02-28T05:25:55;2.80;99.90
52415;DHT22;38340;52.964;6.086;2023-02-28T05:28:21;2.80;99.90
52415;DHT22;38340;52.964;6.086;2023-02-28T05:30:47;2.70;99.90
52415;DHT22;38340;52.964;6.086;2023-02-28T05:33:13;2.60;99.90
52415;DHT22;38340;52.964;6.086;2023-02-28T05:35:40;2.50;99.90
52415;DHT22;38340;52.964;6.086;2023-02-28T05:38:08;2.50;99.90
52415;DHT22;38340;52.964;6.086;2023-02-28T05:40:34;2.30;99.90
52415;DHT22;38340;52.964;6.086;2023-02-28T05:43:00;2.40;99.90
52415;DHT22;38340;52.964;6.086;2023-02-28T05:45:26;2.30;99.90
52415;DHT22;38340;52.964;6.086;2023-02-28T05:47:55;2.40;99.90
52415;DHT22;38340;52.964;6.086;2023-02-28T05:50:21;2.40;99.90
52415;DHT22;38340;52.964;6.086;2023-02-28T05:52:53;2.40;99.90
52415;DHT22;38340;52.964;6.086;2023-02-28T05:55:19;2.40;99.90
52415;DHT22;38340;52.964;6.086;2023-02-28T05:57:44;2.30;99.90
52415;DHT22;38340;52.964;6.086;2023-02-28T06:00:11;2.30;99.90
52415;DHT22;38340;52.964;6.086;2023-02-28T06:02:39;2.20;99.90
52415;DHT22;38340;52.964;6.086;2023-02-28T06:05:10;2.20;99.90
52415;DHT22;38340;52.964;6.086;2023-02-28T06:07:38;2.20;99.90
52415;DHT22;38340;52.964;6.086;2023-02-28T06:10:03;2.10;99.90
52415;DHT22;38340;52.964;6.086;2023-02-28T06:12:29;2.20;99.90
52415;DHT22;38340;52.964;6.086;2023-02-28T06:14:55;2.20;99.90
52415;DHT22;38340;52.964;6.086;2023-02-28T06:17:21;2.20;99.90
52415;DHT22;38340;52.964;6.086;2023-02-28T06:19:46;2.30;99.90
52415;DHT22;38340;52.964;6.086;2023-02-28T06:22:13;2.30;99.90
52415;DHT22;38340;52.964;6.086;2023-02-28T06:24:39;2.40;99.90
52415;DHT22;38340;52.964;6.086;2023-02-28T06:27:04;2.40;99.90
52415;DHT22;38340;52.964;6.086;2023-02-28T06:29:32;2.40;99.90
52415;DHT22;38340;52.964;6.086;2023-02-28T06:31:58;2.30;99.90
52415;DHT22;38340;52.964;6.086;2023-02-28T06:34:24;2.40;99.90
52415;DHT22;38340;52.964;6.086;2023-02-28T06:36:50;2.30;99.90
52415;DHT22;38340;52.964;6.086;2023-02-28T06:39:17;2.30;99.90
52415;DHT22;38340;52.964;6.086;2023-02-28T06:41:43;2.30;99.90
52415;DHT22;38340;52.964;6.086;2023-02-28T06:44:13;2.30;99.90
52415;DHT22;38340;52.964;6.086;2023-02-28T06:46:41;2.30;99.90
52415;DHT22;38340;52.964;6.086;2023-02-28T06:49:07;2.30;99.90
52415;DHT22;38340;52.964;6.086;2023-02-28T06:51:37;2.20;99.90
52415;DHT22;38340;52.964;6.086;2023-02-28T06:54:04;2.20;99.90
52415;DHT22;38340;52.964;6.086;2023-02-28T06:56:30;2.20;99.90
52415;DHT22;38340;52.964;6.086;2023-02-28T06:58:56;2.20;99.90
52415;DHT22;38340;52.964;6.086;2023-02-28T07:01:22;2.10;99.90
52415;DHT22;38340;52.964;6.086;2023-02-28T07:03:51;2.10;99.90
52415;DHT22;38340;52.964;6.086;2023-02-28T07:06:21;2.10;99.90
52415;DHT22;38340;52.964;6.086;2023-02-28T07:08:51;2.00;99.90
52415;DHT22;38340;52.964;6.086;2023-02-28T07:11:19;2.00;99.90
52415;DHT22;38340;52.964;6.086;2023-02-28T07:13:44;2.00;99.90
52415;DHT22;38340;52.964;6.086;2023-02-28T07:16:12;2.00;99.90
52415;DHT22;38340;52.964;6.086;2023-02-28T07:18:38;2.00;99.90
52415;DHT22;38340;52.964;6.086;2023-02-28T07:21:05;2.00;99.90
52415;DHT22;38340;52.964;6.086;2023-02-28T07:23:32;2.10;99.90
52415;DHT22;38340;52.964;6.086;2023-02-28T07:25:58;2.10;99.90
52415;DHT22;38340;52.964;6.086;2023-02-28T07:28:23;2.10;99.90
52415;DHT22;38340;52.964;6.086;2023-02-28T07:30:49;2.10;99.90
52415;DHT22;38340;52.964;6.086;2023-02-28T07:33:15;2.10;99.90
52415;DHT22;38340;52.964;6.086;2023-02-28T07:35:41;2.00;99.90
52415;DHT22;38340;52.964;6.086;2023-02-28T07:38:07;2.00;99.90
52415;DHT22;38340;52.964;6.086;2023-02-28T07:40:35;2.10;99.90
52415;DHT22;38340;52.964;6.086;2023-02-28T07:43:02;2.00;99.90
52415;DHT22;38340;52.964;6.086;2023-02-28T07:45:29;2.00;99.90
52415;DHT22;38340;52.964;6.086;2023-02-28T07:47:55;2.00;99.90
52415;DHT22;38340;52.964;6.086;2023-02-28T07:50:22;2.00;99.90
52415;DHT22;38340;52.964;6.086;2023-02-28T07:52:47;2.00;99.90
52415;DHT22;38340;52.964;6.086;2023-02-28T07:55:13;2.10;99.90
52415;DHT22;38340;52.964;6.086;2023-02-28T07:57:40;2.00;99.90
52415;DHT22;38340;52.964;6.086;2023-02-28T08:00:08;2.10;99.90
52415;DHT22;38340;52.964;6.086;2023-02-28T08:02:39;2.10;99.90
52415;DHT22;38340;52.964;6.086;2023-02-28T08:05:06;2.10;99.90
52415;DHT22;38340;52.964;6.086;2023-02-28T08:07:32;2.20;99.90
52415;DHT22;38340;52.964;6.086;2023-02-28T08:09:59;2.40;99.90
52415;DHT22;38340;52.964;6.086;2023-02-28T08:12:25;2.40;99.90
52415;DHT22;38340;52.964;6.086;2023-02-28T08:14:50;2.40;99.90
52415;DHT22;38340;52.964;6.086;2023-02-28T08:17:16;2.40;99.90
52415;DHT22;38340;52.964;6.086;2023-02-28T08:19:42;2.30;99.90
52415;DHT22;38340;52.964;6.086;2023-02-28T08:22:07;2.30;99.90
52415;DHT22;38340;52.964;6.086;2023-02-28T08:24:33;2.30;99.90
52415;DHT22;38340;52.964;6.086;2023-02-28T08:26:59;2.40;99.90
52415;DHT22;38340;52.964;6.086;2023-02-28T08:29:24;2.40;99.90
52415;DHT22;38340;52.964;6.086;2023-02-28T08:31:50;2.40;99.90
52415;DHT22;38340;52.964;6.086;2023-02-28T08:34:16;2.60;99.90
52415;DHT22;38340;52.964;6.086;2023-02-28T08:36:43;2.60;99.90
52415;DHT22;38340;52.964;6.086;2023-02-28T08:39:10;2.50;99.90
52415;DHT22;38340;52.964;6.086;2023-02-28T08:41:36;2.50;99.90
52415;DHT22;38340;52.964;6.086;2023-02-28T08:44:02;2.40;99.90
52415;DHT22;38340;52.964;6.086;2023-02-28T08:46:28;2.30;99.90
52415;DHT22;38340;52.964;6.086;2023-02-28T08:48:55;2.40;99.90
52415;DHT22;38340;52.964;6.086;2023-02-28T08:51:24;2.40;99.90
52415;DHT22;38340;52.964;6.086;2023-02-28T08:54:02;2.60;99.90
52415;DHT22;38340;52.964;6.086;2023-02-28T08:56:29;2.70;99.90
52415;DHT22;38340;52.964;6.086;2023-02-28T08:58:56;2.90;99.90
52415;DHT22;38340;52.964;6.086;2023-02-28T09:01:28;2.90;99.90
52415;DHT22;38340;52.964;6.086;2023-02-28T09:03:55;2.90;99.90
52415;DHT22;38340;52.964;6.086;2023-02-28T09:06:23;2.90;99.90
52415;DHT22;38340;52.964;6.086;2023-02-28T09:08:49;2.90;99.90
52415;DHT22;38340;52.964;6.086;2023-02-28T09:11:15;2.90;99.90
52415;DHT22;38340;52.964;6.086;2023-02-28T09:13:41;3.00;99.90
52415;DHT22;38340;52.964;6.086;2023-02-28T09:16:09;3.20;99.90
52415;DHT22;38340;52.964;6.086;2023-02-28T09:18:37;3.30;99.90
52415;DHT22;38340;52.964;6.086;2023-02-28T09:21:08;3.40;99.90
52415;DHT22;38340;52.964;6.086;2023-02-28T09:23:34;3.70;99.90
52415;DHT22;38340;52.964;6.086;2023-02-28T09:26:00;3.80;99.90
52415;DHT22;38340;52.964;6.086;2023-02-28T09:28:26;3.90;99.90
52415;DHT22;38340;52.964;6.086;2023-02-28T09:30:53;4.00;99.90
52415;DHT22;38340;52.964;6.086;2023-02-28T09:33:20;4.10;99.90
52415;DHT22;38340;52.964;6.086;2023-02-28T09:35:48;4.10;99.90
52415;DHT22;38340;52.964;6.086;2023-02-28T09:38:14;4.10;99.90
52415;DHT22;38340;52.964;6.086;2023-02-28T09:40:49;4.20;99.90
52415;DHT22;38340;52.964;6.086;2023-02-28T09:43:18;4.30;99.90
52415;DHT22;38340;52.964;6.086;2023-02-28T09:46:14;4.40;99.90
52415;DHT22;38340;52.964;6.086;2023-02-28T09:48:45;4.70;99.90
52415;DHT22;38340;52.964;6.086;2023-02-28T09:54:17;4.50;99.90
52415;DHT22;38340;52.964;6.086;2023-02-28T09:56:47;4.70;99.90
52415;DHT22;38340;52.964;6.086;2023-02-28T10:02:56;5.00;99.90
52415;DHT22;38340;52.964;6.086;2023-02-28T10:08:16;5.00;99.90
52415;DHT22;38340;52.964;6.086;2023-02-28T10:10:48;5.10;99.90
52415;DHT22;38340;52.964;6.086;2023-02-28T10:13:25;5.00;99.90
52415;DHT22;38340;52.964;6.086;2023-02-28T10:16:16;4.90;99.90
52415;DHT22;38340;52.964;6.086;2023-02-28T10:18:50;4.70;99.90
52415;DHT22;38340;52.964;6.086;2023-02-28T10:21:35;4.90;99.90
52415;DHT22;38340;52.964;6.086;2023-02-28T10:24:35;4.90;99.90
52415;DHT22;38340;52.964;6.086;2023-02-28T10:27:06;5.00;99.90
52415;DHT22;38340;52.964;6.086;2023-02-28T10:29:43;5.10;99.90
52415;DHT22;38340;52.964;6.086;2023-02-28T10:32:11;5.20;99.90
52415;DHT22;38340;52.964;6.086;2023-02-28T10:34:38;5.40;99.90
52415;DHT22;38340;52.964;6.086;2023-02-28T10:37:04;5.40;99.90
52415;DHT22;38340;52.964;6.086;2023-02-28T10:39:42;5.70;99.90
52415;DHT22;38340;52.964;6.086;2023-02-28T10:42:28;5.70;99.90
52415;DHT22;38340;52.964;6.086;2023-02-28T10:45:13;5.80;99.90
52415;DHT22;38340;52.964;6.086;2023-02-28T10:48:03;5.70;99.90
52415;DHT22;38340;52.964;6.086;2023-02-28T10:56:19;5.30;99.90
52415;DHT22;38340;52.964;6.086;2023-02-28T10:58:50;5.30;99.90
52415;DHT22;38340;52.964;6.086;2023-02-28T11:03:51;5.60;99.90
52415;DHT22;38340;52.964;6.086;2023-02-28T11:06:33;5.70;99.90
52415;DHT22;38340;52.964;6.086;2023-02-28T11:09:15;5.70;99.90
52415;DHT22;38340;52.964;6.086;2023-02-28T11:11:44;5.70;99.90
52415;DHT22;38340;52.964;6.086;2023-02-28T11:14:21;5.70;99.90
52415;DHT22;38340;52.964;6.086;2023-02-28T11:16:48;5.50;99.90
52415;DHT22;38340;52.964;6.086;2023-02-28T11:19:20;5.60;9.70
52415;DHT22;38340;52.964;6.086;2023-02-28T11:22:04;5.60;99.90
52415;DHT22;38340;52.964;6.086;2023-02-28T11:24:57;5.70;99.90
52415;DHT22;38340;52.964;6.086;2023-02-28T11:29:58;5.80;1.00
52415;DHT22;38340;52.964;6.086;2023-02-28T11:32:26;5.80;1.00
52415;DHT22;38340;52.964;6.086;2023-02-28T11:37:35;5.70;99.90
52415;DHT22;38340;52.964;6.086;2023-02-28T11:40:01;5.80;99.90
52415;DHT22;38340;52.964;6.086;2023-02-28T11:42:45;5.70;1.00
52415;DHT22;38340;52.964;6.086;2023-02-28T11:53:40;5.90;34.40
52415;DHT22;38340;52.964;6.086;2023-02-28T12:01:38;6.00;1.00
52415;DHT22;38340;52.964;6.086;2023-02-28T12:17:57;6.20;1.00
52415;DHT22;38340;52.964;6.086;2023-02-28T12:20:53;6.10;99.90
52415;DHT22;38340;52.964;6.086;2023-02-28T12:26:08;6.10;99.70
52415;DHT22;38340;52.964;6.086;2023-02-28T12:28:40;6.00;1.00
52415;DHT22;38340;52.964;6.086;2023-02-28T12:33:43;6.10;1.00
52415;DHT22;38340;52.964;6.086;2023-02-28T12:36:13;6.10;1.00
52415;DHT22;38340;52.964;6.086;2023-02-28T12:38:49;6.10;1.00
52415;DHT22;38340;52.964;6.086;2023-02-28T12:41:26;6.10;1.00
52415;DHT22;38340;52.964;6.086;2023-02-28T12:44:00;6.10;1.00
52415;DHT22;38340;52.964;6.086;2023-02-28T12:46:31;6.10;73.90
52415;DHT22;38340;52.964;6.086;2023-02-28T12:49:04;6.10;1.00
52415;DHT22;38340;52.964;6.086;2023-02-28T12:51:31;6.00;99.90
52415;DHT22;38340;52.964;6.086;2023-02-28T12:59:38;5.90;1.00
52415;DHT22;38340;52.964;6.086;2023-02-28T13:05:00;5.80;16.20
52415;DHT22;38340;52.964;6.086;2023-02-28T13:10:21;5.60;1.00
52415;DHT22;38340;52.964;6.086;2023-02-28T13:12:48;5.60;1.00
52415;DHT22;38340;52.964;6.086;2023-02-28T13:15:33;5.70;99.90
52415;DHT22;38340;52.964;6.086;2023-02-28T13:18:03;5.70;1.00
52415;DHT22;38340;52.964;6.086;2023-02-28T13:20:36;5.80;1.00
52415;DHT22;38340;52.964;6.086;2023-02-28T13:23:03;6.00;59.80
52415;DHT22;38340;52.964;6.086;2023-02-28T13:28:01;6.20;99.90
52415;DHT22;38340;52.964;6.086;2023-02-28T13:33:36;6.40;62.10
52415;DHT22;38340;52.964;6.086;2023-02-28T13:46:35;6.50;99.90
52415;DHT22;38340;52.964;6.086;2023-02-28T13:49:25;6.50;99.90
52415;DHT22;38340;52.964;6.086;2023-02-28T13:57:25;6.40;99.90
52415;DHT22;38340;52.964;6.086;2023-02-28T14:02:45;6.50;99.90
52415;DHT22;38340;52.964;6.086;2023-02-28T14:08:19;6.40;99.90
52415;DHT22;38340;52.964;6.086;2023-02-28T14:10:45;6.30;99.90
52415;DHT22;38340;52.964;6.086;2023-02-28T14:13:44;6.30;99.90
52415;DHT22;38340;52.964;6.086;2023-02-28T14:16:20;6.30;1.00
52415;DHT22;38340;52.964;6.086;2023-02-28T14:18:57;6.30;1.00
52415;DHT22;38340;52.964;6.086;2023-02-28T14:21:34;6.30;1.00
52415;DHT22;38340;52.964;6.086;2023-02-28T14:27:11;6.40;1.00
52415;DHT22;38340;52.964;6.086;2023-02-28T14:30:15;6.40;1.00
52415;DHT22;38340;52.964;6.086;2023-02-28T14:38:11;6.40;99.90
52415;DHT22;38340;52.964;6.086;2023-02-28T14:40:39;6.40;99.90
52415;DHT22;38340;52.964;6.086;2023-02-28T14:43:21;6.40;99.90
52415;DHT22;38340;52.964;6.086;2023-02-28T14:45:57;6.50;99.90
52415;DHT22;38340;52.964;6.086;2023-02-28T14:48:24;6.60;99.90
52415;DHT22;38340;52.964;6.086;2023-02-28T14:50:53;6.60;99.90
52415;DHT22;38340;52.964;6.086;2023-02-28T14:53:22;6.70;99.90
52415;DHT22;38340;52.964;6.086;2023-02-28T14:55:49;6.70;99.90
52415;DHT22;38340;52.964;6.086;2023-02-28T14:58:32;6.70;99.90
52415;DHT22;38340;52.964;6.086;2023-02-28T15:01:00;6.80;99.90
52415;DHT22;38340;52.964;6.086;2023-02-28T15:06:06;6.80;99.90
52415;DHT22;38340;52.964;6.086;2023-02-28T15:08:37;6.70;92.20
52415;DHT22;38340;52.964;6.086;2023-02-28T15:11:19;6.60;91.80
52415;DHT22;38340;52.964;6.086;2023-02-28T15:13:56;6.40;90.10
52415;DHT22;38340;52.964;6.086;2023-02-28T15:16:29;6.40;99.90
52415;DHT22;38340;52.964;6.086;2023-02-28T15:21:44;6.10;99.90
52415;DHT22;38340;52.964;6.086;2023-02-28T15:24:16;6.00;99.90
52415;DHT22;38340;52.964;6.086;2023-02-28T15:26:53;5.90;99.90
52415;DHT22;38340;52.964;6.086;2023-02-28T15:29:23;5.80;99.90
52415;DHT22;38340;52.964;6.086;2023-02-28T15:32:20;5.80;99.90
52415;DHT22;38340;52.964;6.086;2023-02-28T15:34:47;5.80;99.90
52415;DHT22;38340;52.964;6.086;2023-02-28T15:40:15;6.00;99.90
52415;DHT22;38340;52.964;6.086;2023-02-28T15:42:42;6.00;99.90
52415;DHT22;38340;52.964;6.086;2023-02-28T15:45:33;6.10;99.90
52415;DHT22;38340;52.964;6.086;2023-02-28T15:48:03;6.10;99.90
52415;DHT22;38340;52.964;6.086;2023-02-28T15:50:29;6.10;99.90
52415;DHT22;38340;52.964;6.086;2023-02-28T15:52:55;6.10;9.30
52415;DHT22;38340;52.964;6.086;2023-02-28T15:55:24;6.10;69.80
52415;DHT22;38340;52.964;6.086;2023-02-28T15:57:54;6.00;27.00
52415;DHT22;38340;52.964;6.086;2023-02-28T16:00:23;5.90;96.70
52415;DHT22;38340;52.964;6.086;2023-02-28T16:02:50;5.90;84.80
52415;DHT22;38340;52.964;6.086;2023-02-28T16:05:31;5.90;99.90
52415;DHT22;38340;52.964;6.086;2023-02-28T16:08:17;5.90;99.90
52415;DHT22;38340;52.964;6.086;2023-02-28T16:10:43;5.80;99.90
52415;DHT22;38340;52.964;6.086;2023-02-28T16:13:11;5.70;99.90
52415;DHT22;38340;52.964;6.086;2023-02-28T16:15:43;5.70;99.90
52415;DHT22;38340;52.964;6.086;2023-02-28T16:18:13;5.60;99.90
52415;DHT22;38340;52.964;6.086;2023-02-28T16:20:39;5.50;99.90
52415;DHT22;38340;52.964;6.086;2023-02-28T16:23:04;5.50;99.90
52415;DHT22;38340;52.964;6.086;2023-02-28T16:25:36;5.40;99.90
52415;DHT22;38340;52.964;6.086;2023-02-28T16:28:02;5.40;99.90
52415;DHT22;38340;52.964;6.086;2023-02-28T16:30:29;5.40;99.90
52415;DHT22;38340;52.964;6.086;2023-02-28T16:32:58;5.30;99.90
52415;DHT22;38340;52.964;6.086;2023-02-28T16:35:25;5.30;99.90
52415;DHT22;38340;52.964;6.086;2023-02-28T16:37:51;5.30;1.00
52415;DHT22;38340;52.964;6.086;2023-02-28T16:40:23;5.30;1.00
52415;DHT22;38340;52.964;6.086;2023-02-28T16:42:52;5.20;1.00
52415;DHT22;38340;52.964;6.086;2023-02-28T16:45:25;5.20;1.00
52415;DHT22;38340;52.964;6.086;2023-02-28T16:47:51;5.10;1.00
52415;DHT22;38340;52.964;6.086;2023-02-28T16:50:23;5.10;1.00
52415;DHT22;38340;52.964;6.086;2023-02-28T16:52:49;5.00;1.00
52415;DHT22;38340;52.964;6.086;2023-02-28T16:55:18;4.90;1.00
52415;DHT22;38340;52.964;6.086;2023-02-28T16:57:45;4.90;1.00
52415;DHT22;38340;52.964;6.086;2023-02-28T17:00:13;4.80;1.00
52415;DHT22;38340;52.964;6.086;2023-02-28T17:02:39;4.70;1.00
52415;DHT22;38340;52.964;6.086;2023-02-28T17:05:05;4.70;99.90
52415;DHT22;38340;52.964;6.086;2023-02-28T17:07:32;4.60;99.90
52415;DHT22;38340;52.964;6.086;2023-02-28T17:09:58;4.50;99.90
52415;DHT22;38340;52.964;6.086;2023-02-28T17:12:23;4.40;99.90
52415;DHT22;38340;52.964;6.086;2023-02-28T17:14:49;4.40;1.00
52415;DHT22;38340;52.964;6.086;2023-02-28T17:17:17;4.30;99.90
52415;DHT22;38340;52.964;6.086;2023-02-28T17:19:43;4.30;99.90
52415;DHT22;38340;52.964;6.086;2023-02-28T17:22:10;4.10;99.90
52415;DHT22;38340;52.964;6.086;2023-02-28T17:24:35;4.00;99.90
52415;DHT22;38340;52.964;6.086;2023-02-28T17:27:01;3.90;99.90
52415;DHT22;38340;52.964;6.086;2023-02-28T17:29:27;3.70;99.90
52415;DHT22;38340;52.964;6.086;2023-02-28T17:31:53;3.60;99.90
52415;DHT22;38340;52.964;6.086;2023-02-28T17:34:19;3.60;99.90
52415;DHT22;38340;52.964;6.086;2023-02-28T17:36:46;3.50;99.90
52415;DHT22;38340;52.964;6.086;2023-02-28T17:39:14;3.50;99.90
52415;DHT22;38340;52.964;6.086;2023-02-28T17:41:41;3.40;99.90
52415;DHT22;38340;52.964;6.086;2023-02-28T17:44:07;3.30;99.90
52415;DHT22;38340;52.964;6.086;2023-02-28T17:46:34;3.30;99.90
52415;DHT22;38340;52.964;6.086;2023-02-28T17:49:01;3.20;99.90
52415;DHT22;38340;52.964;6.086;2023-02-28T17:51:27;3.20;1.00
52415;DHT22;38340;52.964;6.086;2023-02-28T17:53:52;3.20;1.00
52415;DHT22;38340;52.964;6.086;2023-02-28T17:56:21;3.20;1.00
52415;DHT22;38340;52.964;6.086;2023-02-28T17:58:47;3.20;1.00
52415;DHT22;38340;52.964;6.086;2023-02-28T18:01:13;3.20;1.00
52415;DHT22;38340;52.964;6.086;2023-02-28T18:03:39;3.20;1.00
52415;DHT22;38340;52.964;6.086;2023-02-28T18:06:05;3.10;1.00
52415;DHT22;38340;52.964;6.086;2023-02-28T18:08:32;2.90;1.00
52415;DHT22;38340;52.964;6.086;2023-02-28T18:11:00;2.70;52.40
52415;DHT22;38340;52.964;6.086;2023-02-28T18:13:26;2.50;99.90
52415;DHT22;38340;52.964;6.086;2023-02-28T18:15:53;2.30;99.90
52415;DHT22;38340;52.964;6.086;2023-02-28T18:18:19;2.20;99.90